sensor_id;sensor_type;location;lat;lon;timestamp;P1;durP1;ratioP1;P2;durP2;ratioP2
9260;SDS011;4667;42.726;23.252;2024-03-17T00:01:51;27.93;;;19.97;;
9260;SDS011;4667;42.726;23.252;2024-03-17T00:04:18;27.13;;;18.73;;
9260;SDS011;4667;42.726;23.252;2024-03-17T00:06:45;27.60;;;19.37;;
9260;SDS011;4667;42.726;23.252;2024-03-17T00:09:11;26.77;;;19.00;;
9260;SDS011;4667;42.726;23.252;2024-03-17T00:11:38;27.63;;;19.83;;
9260;SDS011;4667;42.726;23.252;2024-03-17T00:14:04;29.23;;;20.40;;
9260;SDS011;4667;42.726;23.252;2024-03-17T00:16:32;24.40;;;19.00;;
9260;SDS011;4667;42.726;23.252;2024-03-17T00:18:58;28.07;;;19.67;;
9260;SDS011;4667;42.726;23.252;2024-03-17T00:21:26;25.30;;;19.37;;
9260;SDS011;4667;42.726;23.252;2024-03-17T00:23:53;27.97;;;19.93;;
9260;SDS011;4667;42.726;23.252;2024-03-17T00:26:19;26.80;;;19.10;;
9260;SDS011;4667;42.726;23.252;2024-03-17T00:28:45;34.07;;;19.10;;
9260;SDS011;4667;42.726;23.252;2024-03-17T00:31:16;30.73;;;20.47;;
9260;SDS011;4667;42.726;23.252;2024-03-17T00:33:42;25.23;;;18.90;;
9260;SDS011;4667;42.726;23.252;2024-03-17T00:36:11;29.97;;;19.90;;
9260;SDS011;4667;42.726;23.252;2024-03-17T00:38:39;28.13;;;20.83;;
9260;SDS011;4667;42.726;23.252;2024-03-17T00:41:05;27.37;;;19.50;;
9260;SDS011;4667;42.726;23.252;2024-03-17T00:43:31;28.67;;;20.40;;
9260;SDS011;4667;42.726;23.252;2024-03-17T00:45:58;27.50;;;20.33;;
9260;SDS011;4667;42.726;23.252;2024-03-17T00:48:24;29.10;;;19.87;;
9260;SDS011;4667;42.726;23.252;2024-03-17T00:50:54;31.07;;;20.10;;
9260;SDS011;4667;42.726;23.252;2024-03-17T00:53:21;31.77;;;20.57;;
9260;SDS011;4667;42.726;23.252;2024-03-17T00:55:53;34.67;;;22.43;;
9260;SDS011;4667;42.726;23.252;2024-03-17T00:58:19;31.80;;;21.00;;
9260;SDS011;4667;42.726;23.252;2024-03-17T01:00:46;28.43;;;19.63;;
9260;SDS011;4667;42.726;23.252;2024-03-17T01:03:13;29.70;;;20.37;;
9260;SDS011;4667;42.726;23.252;2024-03-17T01:05:41;28.93;;;19.80;;
9260;SDS011;4667;42.726;23.252;2024-03-17T01:08:09;29.97;;;20.90;;
9260;SDS011;4667;42.726;23.252;2024-03-17T01:10:37;28.60;;;20.73;;
9260;SDS011;4667;42.726;23.252;2024-03-17T01:13:05;33.50;;;20.70;;
9260;SDS011;4667;42.726;23.252;2024-03-17T01:15:33;35.23;;;20.63;;
9260;SDS011;4667;42.726;23.252;2024-03-17T01:17:59;32.10;;;19.73;;
9260;SDS011;4667;42.726;23.252;2024-03-17T01:20:26;29.33;;;21.33;;
9260;SDS011;4667;42.726;23.252;2024-03-17T01:22:52;27.33;;;19.53;;
9260;SDS011;4667;42.726;23.252;2024-03-17T01:25:19;28.40;;;20.93;;
9260;SDS011;4667;42.726;23.252;2024-03-17T01:27:45;29.43;;;20.67;;
9260;SDS011;4667;42.726;23.252;2024-03-17T01:30:14;29.80;;;19.50;;
9260;SDS011;4667;42.726;23.252;2024-03-17T01:32:40;27.37;;;19.00;;
9260;SDS011;4667;42.726;23.252;2024-03-17T01:35:07;26.40;;;18.23;;
9260;SDS011;4667;42.726;23.252;2024-03-17T01:37:33;26.37;;;19.20;;
9260;SDS011;4667;42.726;23.252;2024-03-17T01:40:00;30.47;;;18.70;;
9260;SDS011;4667;42.726;23.252;2024-03-17T01:42:26;28.00;;;19.60;;
9260;SDS011;4667;42.726;23.252;2024-03-17T01:44:54;29.77;;;20.20;;
9260;SDS011;4667;42.726;23.252;2024-03-17T01:47:21;29.77;;;19.90;;
9260;SDS011;4667;42.726;23.252;2024-03-17T01:49:49;29.17;;;20.43;;
9260;SDS011;4667;42.726;23.252;2024-03-17T01:52:16;28.80;;;18.87;;
9260;SDS011;4667;42.726;23.252;2024-03-17T01:54:45;22.87;;;17.90;;
9260;SDS011;4667;42.726;23.252;2024-03-17T01:57:11;24.93;;;19.07;;
9260;SDS011;4667;42.726;23.252;2024-03-17T01:59:39;26.50;;;19.53;;
9260;SDS011;4667;42.726;23.252;2024-03-17T02:02:05;26.17;;;18.77;;
9260;SDS011;4667;42.726;23.252;2024-03-17T02:04:34;25.07;;;18.70;;
9260;SDS011;4667;42.726;23.252;2024-03-17T02:07:00;24.57;;;18.43;;
9260;SDS011;4667;42.726;23.252;2024-03-17T02:09:27;26.67;;;19.13;;
9260;SDS011;4667;42.726;23.252;2024-03-17T02:11:54;26.97;;;20.07;;
9260;SDS011;4667;42.726;23.252;2024-03-17T02:14:20;33.73;;;19.97;;
9260;SDS011;4667;42.726;23.252;2024-03-17T02:16:46;27.20;;;18.83;;
9260;SDS011;4667;42.726;23.252;2024-03-17T02:19:13;26.27;;;19.47;;
9260;SDS011;4667;42.726;23.252;2024-03-17T02:21:41;26.83;;;19.27;;
9260;SDS011;4667;42.726;23.252;2024-03-17T02:24:09;26.30;;;19.47;;
9260;SDS011;4667;42.726;23.252;2024-03-17T02:26:35;24.60;;;18.70;;
9260;SDS011;4667;42.726;23.252;2024-03-17T02:29:03;27.63;;;19.03;;
9260;SDS011;4667;42.726;23.252;2024-03-17T02:31:29;26.13;;;18.80;;
9260;SDS011;4667;42.726;23.252;2024-03-17T02:33:56;25.87;;;19.47;;
9260;SDS011;4667;42.726;23.252;2024-03-17T02:36:22;29.40;;;19.83;;
9260;SDS011;4667;42.726;23.252;2024-03-17T02:38:49;26.60;;;19.67;;
9260;SDS011;4667;42.726;23.252;2024-03-17T02:41:34;27.37;;;19.13;;
9260;SDS011;4667;42.726;23.252;2024-03-17T02:44:01;28.90;;;19.53;;
9260;SDS011;4667;42.726;23.252;2024-03-17T02:46:28;28.60;;;19.33;;
9260;SDS011;4667;42.726;23.252;2024-03-17T02:48:55;28.07;;;18.87;;
9260;SDS011;4667;42.726;23.252;2024-03-17T02:51:22;27.23;;;19.43;;
9260;SDS011;4667;42.726;23.252;2024-03-17T02:53:49;27.73;;;19.00;;
9260;SDS011;4667;42.726;23.252;2024-03-17T02:56:17;26.30;;;18.03;;
9260;SDS011;4667;42.726;23.252;2024-03-17T02:58:46;25.70;;;19.43;;
9260;SDS011;4667;42.726;23.252;2024-03-17T03:01:14;27.60;;;18.87;;
9260;SDS011;4667;42.726;23.252;2024-03-17T03:03:41;30.87;;;19.90;;
9260;SDS011;4667;42.726;23.252;2024-03-17T03:06:08;27.93;;;18.27;;
9260;SDS011;4667;42.726;23.252;2024-03-17T03:08:37;25.90;;;18.60;;
9260;SDS011;4667;42.726;23.252;2024-03-17T03:11:05;26.60;;;18.00;;
9260;SDS011;4667;42.726;23.252;2024-03-17T03:13:36;28.47;;;19.37;;
9260;SDS011;4667;42.726;23.252;2024-03-17T03:16:06;27.27;;;19.63;;
9260;SDS011;4667;42.726;23.252;2024-03-17T03:18:34;29.13;;;20.57;;
9260;SDS011;4667;42.726;23.252;2024-03-17T03:21:01;25.73;;;18.73;;
9260;SDS011;4667;42.726;23.252;2024-03-17T03:23:28;28.37;;;18.87;;
9260;SDS011;4667;42.726;23.252;2024-03-17T03:25:55;27.40;;;18.83;;
9260;SDS011;4667;42.726;23.252;2024-03-17T03:28:23;25.90;;;19.37;;
9260;SDS011;4667;42.726;23.252;2024-03-17T03:30:50;27.50;;;19.03;;
9260;SDS011;4667;42.726;23.252;2024-03-17T03:33:19;29.43;;;19.10;;
9260;SDS011;4667;42.726;23.252;2024-03-17T03:35:47;33.03;;;20.57;;
9260;SDS011;4667;42.726;23.252;2024-03-17T03:38:15;26.80;;;19.03;;
9260;SDS011;4667;42.726;23.252;2024-03-17T03:40:43;30.87;;;19.80;;
9260;SDS011;4667;42.726;23.252;2024-03-17T03:43:13;31.30;;;20.83;;
9260;SDS011;4667;42.726;23.252;2024-03-17T03:45:40;30.93;;;18.53;;
9260;SDS011;4667;42.726;23.252;2024-03-17T03:48:07;30.93;;;20.27;;
9260;SDS011;4667;42.726;23.252;2024-03-17T03:50:36;29.23;;;18.13;;
9260;SDS011;4667;42.726;23.252;2024-03-17T03:53:04;26.43;;;19.27;;
9260;SDS011;4667;42.726;23.252;2024-03-17T03:55:32;30.30;;;19.63;;
9260;SDS011;4667;42.726;23.252;2024-03-17T03:57:59;31.03;;;19.00;;
9260;SDS011;4667;42.726;23.252;2024-03-17T04:00:26;32.17;;;20.30;;
9260;SDS011;4667;42.726;23.252;2024-03-17T04:02:56;27.30;;;19.63;;
9260;SDS011;4667;42.726;23.252;2024-03-17T04:05:24;32.93;;;20.70;;
9260;SDS011;4667;42.726;23.252;2024-03-17T04:07:52;32.33;;;20.93;;
9260;SDS011;4667;42.726;23.252;2024-03-17T04:10:19;29.87;;;20.27;;
9260;SDS011;4667;42.726;23.252;2024-03-17T04:12:47;32.57;;;21.00;;
9260;SDS011;4667;42.726;23.252;2024-03-17T04:15:13;37.30;;;21.33;;
9260;SDS011;4667;42.726;23.252;2024-03-17T04:17:40;29.83;;;19.80;;
9260;SDS011;4667;42.726;23.252;2024-03-17T04:20:07;31.40;;;20.30;;
9260;SDS011;4667;42.726;23.252;2024-03-17T04:22:38;30.80;;;21.10;;
9260;SDS011;4667;42.726;23.252;2024-03-17T04:25:07;29.77;;;21.43;;
9260;SDS011;4667;42.726;23.252;2024-03-17T04:27:34;31.43;;;20.60;;
9260;SDS011;4667;42.726;23.252;2024-03-17T04:30:01;34.97;;;21.90;;
9260;SDS011;4667;42.726;23.252;2024-03-17T04:32:31;32.17;;;21.90;;
9260;SDS011;4667;42.726;23.252;2024-03-17T04:34:57;31.00;;;20.83;;
9260;SDS011;4667;42.726;23.252;2024-03-17T04:37:24;32.20;;;22.87;;
9260;SDS011;4667;42.726;23.252;2024-03-17T04:39:50;30.77;;;21.67;;
9260;SDS011;4667;42.726;23.252;2024-03-17T04:42:19;30.73;;;21.83;;
9260;SDS011;4667;42.726;23.252;2024-03-17T04:44:46;35.30;;;20.93;;
9260;SDS011;4667;42.726;23.252;2024-03-17T04:47:13;33.20;;;21.20;;
9260;SDS011;4667;42.726;23.252;2024-03-17T04:49:40;30.73;;;21.67;;
9260;SDS011;4667;42.726;23.252;2024-03-17T04:52:08;32.03;;;23.40;;
9260;SDS011;4667;42.726;23.252;2024-03-17T04:54:35;39.93;;;24.07;;
9260;SDS011;4667;42.726;23.252;2024-03-17T04:57:02;35.03;;;21.97;;
9260;SDS011;4667;42.726;23.252;2024-03-17T04:59:33;31.17;;;19.93;;
9260;SDS011;4667;42.726;23.252;2024-03-17T05:02:00;32.13;;;21.67;;
9260;SDS011;4667;42.726;23.252;2024-03-17T05:04:28;32.67;;;21.40;;
9260;SDS011;4667;42.726;23.252;2024-03-17T05:06:55;34.53;;;21.87;;
9260;SDS011;4667;42.726;23.252;2024-03-17T05:09:22;35.97;;;21.00;;
9260;SDS011;4667;42.726;23.252;2024-03-17T05:11:49;31.17;;;21.50;;
9260;SDS011;4667;42.726;23.252;2024-03-17T05:14:17;37.07;;;21.13;;
9260;SDS011;4667;42.726;23.252;2024-03-17T05:16:49;33.87;;;22.43;;
9260;SDS011;4667;42.726;23.252;2024-03-17T05:19:16;29.40;;;20.80;;
9260;SDS011;4667;42.726;23.252;2024-03-17T05:21:43;31.87;;;20.90;;
9260;SDS011;4667;42.726;23.252;2024-03-17T05:24:11;45.57;;;22.20;;
9260;SDS011;4667;42.726;23.252;2024-03-17T05:26:38;30.30;;;20.30;;
9260;SDS011;4667;42.726;23.252;2024-03-17T05:29:05;32.87;;;20.67;;
9260;SDS011;4667;42.726;23.252;2024-03-17T05:31:32;30.77;;;20.23;;
9260;SDS011;4667;42.726;23.252;2024-03-17T05:34:00;36.80;;;20.27;;
9260;SDS011;4667;42.726;23.252;2024-03-17T05:36:28;31.87;;;20.33;;
9260;SDS011;4667;42.726;23.252;2024-03-17T05:38:57;34.03;;;20.73;;
9260;SDS011;4667;42.726;23.252;2024-03-17T05:41:25;32.27;;;20.47;;
9260;SDS011;4667;42.726;23.252;2024-03-17T05:43:53;32.13;;;20.13;;
9260;SDS011;4667;42.726;23.252;2024-03-17T05:46:23;32.97;;;21.23;;
9260;SDS011;4667;42.726;23.252;2024-03-17T05:48:51;35.37;;;21.37;;
9260;SDS011;4667;42.726;23.252;2024-03-17T05:51:19;35.13;;;21.63;;
9260;SDS011;4667;42.726;23.252;2024-03-17T05:53:46;31.60;;;20.53;;
9260;SDS011;4667;42.726;23.252;2024-03-17T05:56:13;36.57;;;22.27;;
9260;SDS011;4667;42.726;23.252;2024-03-17T05:58:41;43.17;;;23.87;;
9260;SDS011;4667;42.726;23.252;2024-03-17T06:01:09;44.17;;;23.83;;
9260;SDS011;4667;42.726;23.252;2024-03-17T06:03:36;38.37;;;26.33;;
9260;SDS011;4667;42.726;23.252;2024-03-17T06:06:04;42.17;;;26.90;;
9260;SDS011;4667;42.726;23.252;2024-03-17T06:08:36;44.27;;;26.87;;
9260;SDS011;4667;42.726;23.252;2024-03-17T06:11:04;44.67;;;26.90;;
9260;SDS011;4667;42.726;23.252;2024-03-17T06:13:31;40.93;;;28.30;;
9260;SDS011;4667;42.726;23.252;2024-03-17T06:15:58;44.57;;;28.73;;
9260;SDS011;4667;42.726;23.252;2024-03-17T06:18:27;45.77;;;31.50;;
9260;SDS011;4667;42.726;23.252;2024-03-17T06:20:54;42.60;;;28.90;;
9260;SDS011;4667;42.726;23.252;2024-03-17T06:23:23;39.17;;;28.47;;
9260;SDS011;4667;42.726;23.252;2024-03-17T06:25:53;37.67;;;25.20;;
9260;SDS011;4667;42.726;23.252;2024-03-17T06:28:21;37.67;;;24.60;;
9260;SDS011;4667;42.726;23.252;2024-03-17T06:30:55;38.70;;;26.47;;
9260;SDS011;4667;42.726;23.252;2024-03-17T06:33:25;38.80;;;27.97;;
9260;SDS011;4667;42.726;23.252;2024-03-17T06:35:53;39.10;;;27.17;;
9260;SDS011;4667;42.726;23.252;2024-03-17T06:38:21;41.23;;;27.17;;
9260;SDS011;4667;42.726;23.252;2024-03-17T06:40:48;40.27;;;26.10;;
9260;SDS011;4667;42.726;23.252;2024-03-17T06:43:17;35.60;;;24.60;;
9260;SDS011;4667;42.726;23.252;2024-03-17T06:45:53;30.13;;;20.83;;
9260;SDS011;4667;42.726;23.252;2024-03-17T06:48:21;30.60;;;21.07;;
9260;SDS011;4667;42.726;23.252;2024-03-17T06:50:48;31.53;;;21.07;;
9260;SDS011;4667;42.726;23.252;2024-03-17T06:53:16;30.00;;;20.83;;
9260;SDS011;4667;42.726;23.252;2024-03-17T06:55:44;33.93;;;22.20;;
9260;SDS011;4667;42.726;23.252;2024-03-17T06:58:13;34.90;;;21.87;;
9260;SDS011;4667;42.726;23.252;2024-03-17T07:00:44;28.57;;;20.23;;
9260;SDS011;4667;42.726;23.252;2024-03-17T07:03:19;31.47;;;19.73;;
9260;SDS011;4667;42.726;23.252;2024-03-17T07:05:50;27.93;;;19.27;;
9260;SDS011;4667;42.726;23.252;2024-03-17T07:08:18;27.67;;;19.73;;
9260;SDS011;4667;42.726;23.252;2024-03-17T07:10:54;29.10;;;19.67;;
9260;SDS011;4667;42.726;23.252;2024-03-17T07:13:25;25.93;;;19.20;;
9260;SDS011;4667;42.726;23.252;2024-03-17T07:15:53;26.77;;;19.70;;
9260;SDS011;4667;42.726;23.252;2024-03-17T07:18:20;28.17;;;18.23;;
9260;SDS011;4667;42.726;23.252;2024-03-17T07:20:47;26.13;;;19.33;;
9260;SDS011;4667;42.726;23.252;2024-03-17T07:23:14;22.30;;;16.83;;
9260;SDS011;4667;42.726;23.252;2024-03-17T07:25:42;24.73;;;16.90;;
9260;SDS011;4667;42.726;23.252;2024-03-17T07:28:09;23.30;;;15.43;;
9260;SDS011;4667;42.726;23.252;2024-03-17T07:30:36;21.93;;;16.50;;
9260;SDS011;4667;42.726;23.252;2024-03-17T07:33:04;19.30;;;15.33;;
9260;SDS011;4667;42.726;23.252;2024-03-17T07:35:38;21.87;;;14.83;;
9260;SDS011;4667;42.726;23.252;2024-03-17T07:38:20;22.40;;;16.23;;
9260;SDS011;4667;42.726;23.252;2024-03-17T07:40:55;20.73;;;15.17;;
9260;SDS011;4667;42.726;23.252;2024-03-17T07:43:29;21.13;;;16.40;;
9260;SDS011;4667;42.726;23.252;2024-03-17T07:45:59;22.97;;;17.20;;
9260;SDS011;4667;42.726;23.252;2024-03-17T07:48:28;26.00;;;17.80;;
9260;SDS011;4667;42.726;23.252;2024-03-17T07:50:56;27.10;;;18.47;;
9260;SDS011;4667;42.726;23.252;2024-03-17T07:53:28;25.50;;;14.17;;
9260;SDS011;4667;42.726;23.252;2024-03-17T07:55:59;17.60;;;13.27;;
9260;SDS011;4667;42.726;23.252;2024-03-17T07:58:27;21.07;;;13.93;;
9260;SDS011;4667;42.726;23.252;2024-03-17T08:00:58;18.27;;;12.07;;
9260;SDS011;4667;42.726;23.252;2024-03-17T08:03:30;15.87;;;12.10;;
9260;SDS011;4667;42.726;23.252;2024-03-17T08:05:59;16.00;;;11.57;;
9260;SDS011;4667;42.726;23.252;2024-03-17T08:08:26;18.77;;;11.33;;
9260;SDS011;4667;42.726;23.252;2024-03-17T08:10:54;22.50;;;12.23;;
9260;SDS011;4667;42.726;23.252;2024-03-17T08:13:21;17.63;;;12.43;;
9260;SDS011;4667;42.726;23.252;2024-03-17T08:15:54;18.10;;;12.37;;
9260;SDS011;4667;42.726;23.252;2024-03-17T08:18:23;16.40;;;12.60;;
9260;SDS011;4667;42.726;23.252;2024-03-17T08:20:51;17.93;;;12.10;;
9260;SDS011;4667;42.726;23.252;2024-03-17T08:23:19;17.70;;;12.97;;
9260;SDS011;4667;42.726;23.252;2024-03-17T08:25:51;19.90;;;12.17;;
9260;SDS011;4667;42.726;23.252;2024-03-17T08:28:19;15.13;;;10.47;;
9260;SDS011;4667;42.726;23.252;2024-03-17T08:30:50;18.27;;;11.80;;
9260;SDS011;4667;42.726;23.252;2024-03-17T08:33:19;14.73;;;11.77;;
9260;SDS011;4667;42.726;23.252;2024-03-17T08:35:53;15.50;;;12.43;;
9260;SDS011;4667;42.726;23.252;2024-03-17T08:38:21;14.00;;;11.33;;
9260;SDS011;4667;42.726;23.252;2024-03-17T08:40:53;18.60;;;12.00;;
9260;SDS011;4667;42.726;23.252;2024-03-17T08:43:24;13.45;;;10.40;;
9260;SDS011;4667;42.726;23.252;2024-03-17T08:45:55;12.85;;;9.32;;
9260;SDS011;4667;42.726;23.252;2024-03-17T08:48:24;12.95;;;10.35;;
9260;SDS011;4667;42.726;23.252;2024-03-17T08:50:54;14.27;;;9.60;;
9260;SDS011;4667;42.726;23.252;2024-03-17T08:53:22;13.07;;;10.40;;
9260;SDS011;4667;42.726;23.252;2024-03-17T08:55:49;12.70;;;9.45;;
9260;SDS011;4667;42.726;23.252;2024-03-17T08:58:19;14.15;;;10.57;;
9260;SDS011;4667;42.726;23.252;2024-03-17T09:00:46;11.25;;;10.00;;
9260;SDS011;4667;42.726;23.252;2024-03-17T09:03:13;15.98;;;11.05;;
9260;SDS011;4667;42.726;23.252;2024-03-17T09:05:41;16.13;;;12.05;;
9260;SDS011;4667;42.726;23.252;2024-03-17T09:08:10;14.60;;;11.25;;
9260;SDS011;4667;42.726;23.252;2024-03-17T09:10:47;11.48;;;9.57;;
9260;SDS011;4667;42.726;23.252;2024-03-17T09:13:15;10.80;;;8.52;;
9260;SDS011;4667;42.726;23.252;2024-03-17T09:15:49;12.45;;;10.70;;
9260;SDS011;4667;42.726;23.252;2024-03-17T09:18:16;10.38;;;9.32;;
9260;SDS011;4667;42.726;23.252;2024-03-17T09:20:43;11.27;;;9.45;;
9260;SDS011;4667;42.726;23.252;2024-03-17T09:23:12;15.63;;;9.38;;
9260;SDS011;4667;42.726;23.252;2024-03-17T09:25:40;11.38;;;9.18;;
9260;SDS011;4667;42.726;23.252;2024-03-17T09:28:07;10.20;;;8.85;;
9260;SDS011;4667;42.726;23.252;2024-03-17T09:30:34;12.65;;;8.88;;
9260;SDS011;4667;42.726;23.252;2024-03-17T09:33:01;14.68;;;8.88;;
9260;SDS011;4667;42.726;23.252;2024-03-17T09:35:29;9.20;;;7.85;;
9260;SDS011;4667;42.726;23.252;2024-03-17T09:37:57;12.45;;;10.05;;
9260;SDS011;4667;42.726;23.252;2024-03-17T09:40:25;10.35;;;9.23;;
9260;SDS011;4667;42.726;23.252;2024-03-17T09:42:52;9.90;;;8.82;;
9260;SDS011;4667;42.726;23.252;2024-03-17T09:45:19;9.57;;;8.43;;
9260;SDS011;4667;42.726;23.252;2024-03-17T09:47:47;9.02;;;8.10;;
9260;SDS011;4667;42.726;23.252;2024-03-17T09:50:16;10.27;;;8.10;;
9260;SDS011;4667;42.726;23.252;2024-03-17T09:52:44;11.60;;;8.63;;
9260;SDS011;4667;42.726;23.252;2024-03-17T09:58:03;8.23;;;6.68;;
9260;SDS011;4667;42.726;23.252;2024-03-17T10:00:31;12.02;;;8.82;;
9260;SDS011;4667;42.726;23.252;2024-03-17T10:02:58;8.95;;;7.43;;
9260;SDS011;4667;42.726;23.252;2024-03-17T10:05:26;8.93;;;7.68;;
9260;SDS011;4667;42.726;23.252;2024-03-17T10:07:54;8.82;;;7.13;;
9260;SDS011;4667;42.726;23.252;2024-03-17T10:10:22;10.50;;;7.13;;
9260;SDS011;4667;42.726;23.252;2024-03-17T10:13:00;9.55;;;6.82;;
9260;SDS011;4667;42.726;23.252;2024-03-17T10:15:32;7.63;;;6.25;;
9260;SDS011;4667;42.726;23.252;2024-03-17T10:18:01;9.27;;;5.93;;
9260;SDS011;4667;42.726;23.252;2024-03-17T10:20:31;9.85;;;6.95;;
9260;SDS011;4667;42.726;23.252;2024-03-17T10:23:12;9.25;;;6.13;;
9260;SDS011;4667;42.726;23.252;2024-03-17T10:25:44;8.43;;;6.50;;
9260;SDS011;4667;42.726;23.252;2024-03-17T10:28:13;10.88;;;7.57;;
9260;SDS011;4667;42.726;23.252;2024-03-17T10:30:42;9.55;;;7.63;;
9260;SDS011;4667;42.726;23.252;2024-03-17T10:33:37;9.32;;;7.22;;
9260;SDS011;4667;42.726;23.252;2024-03-17T10:36:06;9.65;;;7.28;;
9260;SDS011;4667;42.726;23.252;2024-03-17T10:38:54;9.02;;;5.95;;
9260;SDS011;4667;42.726;23.252;2024-03-17T10:41:24;10.32;;;6.63;;
9260;SDS011;4667;42.726;23.252;2024-03-17T10:43:55;8.52;;;6.68;;
9260;SDS011;4667;42.726;23.252;2024-03-17T10:46:23;6.40;;;5.72;;
9260;SDS011;4667;42.726;23.252;2024-03-17T10:48:52;8.68;;;5.72;;
9260;SDS011;4667;42.726;23.252;2024-03-17T10:51:20;6.13;;;5.53;;
9260;SDS011;4667;42.726;23.252;2024-03-17T10:53:49;6.38;;;5.30;;
9260;SDS011;4667;42.726;23.252;2024-03-17T10:56:19;8.00;;;5.30;;
9260;SDS011;4667;42.726;23.252;2024-03-17T10:58:48;7.07;;;5.72;;
9260;SDS011;4667;42.726;23.252;2024-03-17T11:01:26;5.78;;;4.90;;
9260;SDS011;4667;42.726;23.252;2024-03-17T11:03:54;5.00;;;4.22;;
9260;SDS011;4667;42.726;23.252;2024-03-17T11:06:22;5.80;;;4.97;;
9260;SDS011;4667;42.726;23.252;2024-03-17T11:08:49;4.60;;;4.13;;
9260;SDS011;4667;42.726;23.252;2024-03-17T11:14:15;5.32;;;4.00;;
9260;SDS011;4667;42.726;23.252;2024-03-17T11:16:46;5.78;;;4.35;;
9260;SDS011;4667;42.726;23.252;2024-03-17T11:19:14;5.72;;;4.22;;
9260;SDS011;4667;42.726;23.252;2024-03-17T11:21:42;5.00;;;4.50;;
9260;SDS011;4667;42.726;23.252;2024-03-17T11:24:18;6.18;;;4.55;;
9260;SDS011;4667;42.726;23.252;2024-03-17T11:26:57;8.00;;;4.75;;
9260;SDS011;4667;42.726;23.252;2024-03-17T11:29:26;5.07;;;4.50;;
9260;SDS011;4667;42.726;23.252;2024-03-17T11:31:56;4.75;;;4.25;;
9260;SDS011;4667;42.726;23.252;2024-03-17T11:34:26;5.68;;;4.32;;
9260;SDS011;4667;42.726;23.252;2024-03-17T11:36:57;6.35;;;4.28;;
9260;SDS011;4667;42.726;23.252;2024-03-17T11:42:23;4.88;;;4.25;;
9260;SDS011;4667;42.726;23.252;2024-03-17T11:44:56;6.97;;;4.57;;
9260;SDS011;4667;42.726;23.252;2024-03-17T11:47:46;6.25;;;5.00;;
9260;SDS011;4667;42.726;23.252;2024-03-17T11:50:13;4.68;;;4.18;;
9260;SDS011;4667;42.726;23.252;2024-03-17T11:52:43;5.15;;;4.65;;
9260;SDS011;4667;42.726;23.252;2024-03-17T11:55:15;5.40;;;4.82;;
9260;SDS011;4667;42.726;23.252;2024-03-17T11:57:43;6.70;;;4.72;;
9260;SDS011;4667;42.726;23.252;2024-03-17T12:00:18;5.85;;;5.30;;
9260;SDS011;4667;42.726;23.252;2024-03-17T12:02:52;5.95;;;5.35;;
9260;SDS011;4667;42.726;23.252;2024-03-17T12:05:18;6.65;;;4.50;;
9260;SDS011;4667;42.726;23.252;2024-03-17T12:07:46;6.15;;;4.60;;
9260;SDS011;4667;42.726;23.252;2024-03-17T12:10:12;5.72;;;4.55;;
9260;SDS011;4667;42.726;23.252;2024-03-17T12:12:46;5.78;;;5.18;;
9260;SDS011;4667;42.726;23.252;2024-03-17T12:15:16;7.03;;;5.32;;
9260;SDS011;4667;42.726;23.252;2024-03-17T12:17:45;5.82;;;5.13;;
9260;SDS011;4667;42.726;23.252;2024-03-17T12:20:22;7.47;;;5.35;;
9260;SDS011;4667;42.726;23.252;2024-03-17T12:22:50;6.18;;;5.57;;
9260;SDS011;4667;42.726;23.252;2024-03-17T12:25:20;7.15;;;6.15;;
9260;SDS011;4667;42.726;23.252;2024-03-17T12:27:52;8.70;;;6.40;;
9260;SDS011;4667;42.726;23.252;2024-03-17T12:30:21;7.97;;;6.13;;
9260;SDS011;4667;42.726;23.252;2024-03-17T12:32:53;6.20;;;5.60;;
9260;SDS011;4667;42.726;23.252;2024-03-17T12:35:27;7.90;;;6.43;;
9260;SDS011;4667;42.726;23.252;2024-03-17T12:38:20;8.40;;;7.38;;
9260;SDS011;4667;42.726;23.252;2024-03-17T12:40:54;8.82;;;6.43;;
9260;SDS011;4667;42.726;23.252;2024-03-17T12:43:22;7.03;;;6.32;;
9260;SDS011;4667;42.726;23.252;2024-03-17T12:45:49;12.18;;;9.02;;
9260;SDS011;4667;42.726;23.252;2024-03-17T12:48:29;9.85;;;7.25;;
9260;SDS011;4667;42.726;23.252;2024-03-17T12:50:59;7.82;;;6.60;;
9260;SDS011;4667;42.726;23.252;2024-03-17T12:53:26;8.23;;;6.13;;
9260;SDS011;4667;42.726;23.252;2024-03-17T12:55:58;9.93;;;6.80;;
9260;SDS011;4667;42.726;23.252;2024-03-17T12:58:42;8.45;;;6.90;;
9260;SDS011;4667;42.726;23.252;2024-03-17T13:01:28;10.30;;;7.03;;
9260;SDS011;4667;42.726;23.252;2024-03-17T13:04:04;7.25;;;6.40;;
9260;SDS011;4667;42.726;23.252;2024-03-17T13:06:39;8.75;;;7.32;;
9260;SDS011;4667;42.726;23.252;2024-03-17T13:09:15;10.88;;;7.32;;
9260;SDS011;4667;42.726;23.252;2024-03-17T13:11:43;11.50;;;7.35;;
9260;SDS011;4667;42.726;23.252;2024-03-17T13:14:10;8.50;;;7.47;;
9260;SDS011;4667;42.726;23.252;2024-03-17T13:16:44;9.32;;;7.45;;
9260;SDS011;4667;42.726;23.252;2024-03-17T13:19:18;8.57;;;7.38;;
9260;SDS011;4667;42.726;23.252;2024-03-17T13:21:51;10.27;;;8.35;;
9260;SDS011;4667;42.726;23.252;2024-03-17T13:24:21;8.80;;;7.88;;
9260;SDS011;4667;42.726;23.252;2024-03-17T13:26:48;8.40;;;7.40;;
9260;SDS011;4667;42.726;23.252;2024-03-17T13:29:17;9.10;;;7.22;;
9260;SDS011;4667;42.726;23.252;2024-03-17T13:31:44;10.73;;;8.40;;
9260;SDS011;4667;42.726;23.252;2024-03-17T13:34:11;10.40;;;8.70;;
9260;SDS011;4667;42.726;23.252;2024-03-17T13:36:40;9.65;;;8.65;;
9260;SDS011;4667;42.726;23.252;2024-03-17T13:39:09;9.55;;;8.48;;
9260;SDS011;4667;42.726;23.252;2024-03-17T13:41:36;10.85;;;8.35;;
9260;SDS011;4667;42.726;23.252;2024-03-17T13:44:04;10.77;;;8.97;;
9260;SDS011;4667;42.726;23.252;2024-03-17T13:46:37;10.73;;;8.23;;
9260;SDS011;4667;42.726;23.252;2024-03-17T13:49:07;8.57;;;7.13;;
9260;SDS011;4667;42.726;23.252;2024-03-17T13:51:35;9.60;;;7.70;;
9260;SDS011;4667;42.726;23.252;2024-03-17T13:54:02;9.65;;;8.15;;
9260;SDS011;4667;42.726;23.252;2024-03-17T13:59:28;10.05;;;8.20;;
9260;SDS011;4667;42.726;23.252;2024-03-17T14:01:59;8.47;;;7.07;;
9260;SDS011;4667;42.726;23.252;2024-03-17T14:04:27;11.20;;;8.13;;
9260;SDS011;4667;42.726;23.252;2024-03-17T14:06:55;9.27;;;7.60;;
9260;SDS011;4667;42.726;23.252;2024-03-17T14:09:21;11.33;;;7.40;;
9260;SDS011;4667;42.726;23.252;2024-03-17T14:11:50;12.67;;;7.77;;
9260;SDS011;4667;42.726;23.252;2024-03-17T14:14:18;10.07;;;7.87;;
9260;SDS011;4667;42.726;23.252;2024-03-17T14:16:45;11.43;;;7.47;;
9260;SDS011;4667;42.726;23.252;2024-03-17T14:19:13;9.40;;;7.13;;
9260;SDS011;4667;42.726;23.252;2024-03-17T14:21:45;9.97;;;7.37;;
9260;SDS011;4667;42.726;23.252;2024-03-17T14:24:17;10.97;;;7.70;;
9260;SDS011;4667;42.726;23.252;2024-03-17T14:26:44;16.77;;;7.97;;
9260;SDS011;4667;42.726;23.252;2024-03-17T14:29:17;11.87;;;7.07;;
9260;SDS011;4667;42.726;23.252;2024-03-17T14:31:59;13.20;;;8.30;;
9260;SDS011;4667;42.726;23.252;2024-03-17T14:34:29;10.27;;;7.80;;
9260;SDS011;4667;42.726;23.252;2024-03-17T14:37:00;9.67;;;7.90;;
9260;SDS011;4667;42.726;23.252;2024-03-17T14:39:28;9.73;;;7.90;;
9260;SDS011;4667;42.726;23.252;2024-03-17T14:41:55;11.10;;;8.60;;
9260;SDS011;4667;42.726;23.252;2024-03-17T14:44:25;11.77;;;8.80;;
9260;SDS011;4667;42.726;23.252;2024-03-17T14:46:52;9.73;;;8.13;;
9260;SDS011;4667;42.726;23.252;2024-03-17T14:49:20;11.13;;;8.60;;
9260;SDS011;4667;42.726;23.252;2024-03-17T14:51:48;11.25;;;8.50;;
9260;SDS011;4667;42.726;23.252;2024-03-17T14:54:15;9.40;;;8.17;;
9260;SDS011;4667;42.726;23.252;2024-03-17T14:56:43;11.68;;;9.48;;
9260;SDS011;4667;42.726;23.252;2024-03-17T14:59:10;10.88;;;8.52;;
9260;SDS011;4667;42.726;23.252;2024-03-17T15:01:39;12.73;;;8.82;;
9260;SDS011;4667;42.726;23.252;2024-03-17T15:04:06;11.05;;;8.70;;
9260;SDS011;4667;42.726;23.252;2024-03-17T15:06:33;11.90;;;9.13;;